sensor_id;sensor_type;location;lat;lon;timestamp;temperature;humidity
52941;DHT22;62001;53.366;6.636;2023-06-10T00:01:49;14.90;99.90
52941;DHT22;62001;53.366;6.636;2023-06-10T00:04:16;14.90;99.90
52941;DHT22;62001;53.366;6.636;2023-06-10T00:06:45;14.90;99.90
52941;DHT22;62001;53.366;6.636;2023-06-10T00:09:13;14.90;99.90
52941;DHT22;62001;53.366;6.636;2023-06-10T00:11:40;14.90;99.90
52941;DHT22;62001;53.366;6.636;2023-06-10T00:14:07;14.90;99.90
52941;DHT22;62001;53.366;6.636;2023-06-10T00:16:33;14.90;99.90
52941;DHT22;62001;53.366;6.636;2023-06-10T00:19:00;14.80;99.90
52941;DHT22;62001;53.366;6.636;2023-06-10T00:21:30;14.80;99.90
52941;DHT22;62001;53.366;6.636;2023-06-10T00:24:04;14.80;99.90
52941;DHT22;62001;53.366;6.636;2023-06-10T00:26:31;14.80;99.90
52941;DHT22;62001;53.366;6.636;2023-06-10T00:28:57;14.70;99.90
52941;DHT22;62001;53.366;6.636;2023-06-10T00:31:23;14.70;99.90
52941;DHT22;62001;53.366;6.636;2023-06-10T00:33:49;14.70;99.90
52941;DHT22;62001;53.366;6.636;2023-06-10T00:36:14;14.60;99.90
52941;DHT22;62001;53.366;6.636;2023-06-10T00:38:40;14.60;99.90
52941;DHT22;62001;53.366;6.636;2023-06-10T00:41:07;14.50;99.90
52941;DHT22;62001;53.366;6.636;2023-06-10T00:43:33;14.50;99.90
52941;DHT22;62001;53.366;6.636;2023-06-10T00:45:59;14.40;99.90
52941;DHT22;62001;53.366;6.636;2023-06-10T00:48:26;14.40;99.90
52941;DHT22;62001;53.366;6.636;2023-06-10T00:50:52;14.40;99.90
52941;DHT22;62001;53.366;6.636;2023-06-10T00:53:19;14.40;99.90
52941;DHT22;62001;53.366;6.636;2023-06-10T00:55:46;14.40;99.90
52941;DHT22;62001;53.366;6.636;2023-06-10T00:58:12;14.30;99.90
52941;DHT22;62001;53.366;6.636;2023-06-10T01:00:38;14.30;99.90
52941;DHT22;62001;53.366;6.636;2023-06-10T01:03:04;14.30;99.90
52941;DHT22;62001;53.366;6.636;2023-06-10T01:05:36;14.20;99.90
52941;DHT22;62001;53.366;6.636;2023-06-10T01:10:48;14.20;99.90
52941;DHT22;62001;53.366;6.636;2023-06-10T01:13:16;14.10;99.90
52941;DHT22;62001;53.366;6.636;2023-06-10T01:15:43;14.00;99.90
52941;DHT22;62001;53.366;6.636;2023-06-10T01:18:10;14.00;99.90
52941;DHT22;62001;53.366;6.636;2023-06-10T01:20:41;14.00;99.90
52941;DHT22;62001;53.366;6.636;2023-06-10T01:23:10;14.00;99.90
52941;DHT22;62001;53.366;6.636;2023-06-10T01:25:49;13.90;99.90
52941;DHT22;62001;53.366;6.636;2023-06-10T01:31:11;13.90;99.90
52941;DHT22;62001;53.366;6.636;2023-06-10T01:33:43;13.80;99.90
52941;DHT22;62001;53.366;6.636;2023-06-10T01:36:09;13.80;99.90
52941;DHT22;62001;53.366;6.636;2023-06-10T01:38:54;13.70;99.90
52941;DHT22;62001;53.366;6.636;2023-06-10T01:41:21;13.70;99.90
52941;DHT22;62001;53.366;6.636;2023-06-10T01:43:48;13.70;99.90
52941;DHT22;62001;53.366;6.636;2023-06-10T01:46:15;13.70;99.90
52941;DHT22;62001;53.366;6.636;2023-06-10T01:48:42;13.70;99.90
52941;DHT22;62001;53.366;6.636;2023-06-10T01:51:08;13.70;99.90
52941;DHT22;62001;53.366;6.636;2023-06-10T01:53:33;13.70;99.90
52941;DHT22;62001;53.366;6.636;2023-06-10T01:55:59;13.70;99.90
52941;DHT22;62001;53.366;6.636;2023-06-10T01:58:25;13.70;99.90
52941;DHT22;62001;53.366;6.636;2023-06-10T02:00:51;13.70;99.90
52941;DHT22;62001;53.366;6.636;2023-06-10T02:03:17;13.60;99.90
52941;DHT22;62001;53.366;6.636;2023-06-10T02:05:43;13.70;99.90
52941;DHT22;62001;53.366;6.636;2023-06-10T02:08:09;13.60;99.90
52941;DHT22;62001;53.366;6.636;2023-06-10T02:10:35;13.70;99.90
52941;DHT22;62001;53.366;6.636;2023-06-10T02:13:01;13.60;99.90
52941;DHT22;62001;53.366;6.636;2023-06-10T02:15:27;13.60;99.90
52941;DHT22;62001;53.366;6.636;2023-06-10T02:17:53;13.50;99.90
52941;DHT22;62001;53.366;6.636;2023-06-10T02:20:20;13.50;99.90
52941;DHT22;62001;53.366;6.636;2023-06-10T02:22:46;13.50;99.90
52941;DHT22;62001;53.366;6.636;2023-06-10T02:25:12;13.50;99.90
52941;DHT22;62001;53.366;6.636;2023-06-10T02:27:38;13.40;99.90
52941;DHT22;62001;53.366;6.636;2023-06-10T02:30:04;13.40;99.90
52941;DHT22;62001;53.366;6.636;2023-06-10T02:32:30;13.40;99.90
52941;DHT22;62001;53.366;6.636;2023-06-10T02:34:56;13.30;99.90
52941;DHT22;62001;53.366;6.636;2023-06-10T02:37:23;13.30;99.90
52941;DHT22;62001;53.366;6.636;2023-06-10T02:39:49;13.30;99.90
52941;DHT22;62001;53.366;6.636;2023-06-10T02:42:15;13.30;99.90
52941;DHT22;62001;53.366;6.636;2023-06-10T02:44:40;13.20;99.90
52941;DHT22;62001;53.366;6.636;2023-06-10T02:47:06;13.20;99.90
52941;DHT22;62001;53.366;6.636;2023-06-10T02:49:32;13.20;99.90
52941;DHT22;62001;53.366;6.636;2023-06-10T02:51:58;13.20;99.90
52941;DHT22;62001;53.366;6.636;2023-06-10T02:54:24;13.10;99.90
52941;DHT22;62001;53.366;6.636;2023-06-10T02:56:51;13.10;99.90
52941;DHT22;62001;53.366;6.636;2023-06-10T02:59:18;13.10;99.90
52941;DHT22;62001;53.366;6.636;2023-06-10T03:01:44;13.00;99.90
52941;DHT22;62001;53.366;6.636;2023-06-10T03:04:10;13.00;99.90
52941;DHT22;62001;53.366;6.636;2023-06-10T03:06:39;13.00;99.90
52941;DHT22;62001;53.366;6.636;2023-06-10T03:09:06;13.00;99.90
52941;DHT22;62001;53.366;6.636;2023-06-10T03:11:35;13.10;99.90
52941;DHT22;62001;53.366;6.636;2023-06-10T03:14:01;13.10;99.90
52941;DHT22;62001;53.366;6.636;2023-06-10T03:16:27;13.10;99.90
52941;DHT22;62001;53.366;6.636;2023-06-10T03:18:53;13.00;99.90
52941;DHT22;62001;53.366;6.636;2023-06-10T03:21:20;13.00;99.90
52941;DHT22;62001;53.366;6.636;2023-06-10T03:23:46;13.00;99.90
52941;DHT22;62001;53.366;6.636;2023-06-10T03:26:11;13.00;99.90
52941;DHT22;62001;53.366;6.636;2023-06-10T03:28:40;13.00;99.90
52941;DHT22;62001;53.366;6.636;2023-06-10T03:31:06;13.00;99.90
52941;DHT22;62001;53.366;6.636;2023-06-10T03:33:32;13.00;99.90
52941;DHT22;62001;53.366;6.636;2023-06-10T03:35:58;13.00;99.90
52941;DHT22;62001;53.366;6.636;2023-06-10T03:38:24;13.00;99.90
52941;DHT22;62001;53.366;6.636;2023-06-10T03:40:50;13.00;99.90
52941;DHT22;62001;53.366;6.636;2023-06-10T03:43:16;13.00;99.90
52941;DHT22;62001;53.366;6.636;2023-06-10T03:45:42;13.10;99.90
52941;DHT22;62001;53.366;6.636;2023-06-10T03:48:08;13.10;99.90
52941;DHT22;62001;53.366;6.636;2023-06-10T03:50:34;13.10;99.90
52941;DHT22;62001;53.366;6.636;2023-06-10T03:53:01;13.20;99.90
52941;DHT22;62001;53.366;6.636;2023-06-10T03:55:27;13.20;99.90
52941;DHT22;62001;53.366;6.636;2023-06-10T03:57:53;13.10;99.90
52941;DHT22;62001;53.366;6.636;2023-06-10T04:00:19;13.20;99.90
52941;DHT22;62001;53.366;6.636;2023-06-10T04:02:47;13.20;99.90
52941;DHT22;62001;53.366;6.636;2023-06-10T04:05:18;13.20;99.90
52941;DHT22;62001;53.366;6.636;2023-06-10T04:07:47;13.20;99.90
52941;DHT22;62001;53.366;6.636;2023-06-10T04:10:14;13.20;99.90
52941;DHT22;62001;53.366;6.636;2023-06-10T04:12:40;13.30;99.90
52941;DHT22;62001;53.366;6.636;2023-06-10T04:15:07;13.40;99.90
52941;DHT22;62001;53.366;6.636;2023-06-10T04:17:33;13.40;99.90
52941;DHT22;62001;53.366;6.636;2023-06-10T04:19:59;13.50;99.90
52941;DHT22;62001;53.366;6.636;2023-06-10T04:22:26;13.50;99.90
52941;DHT22;62001;53.366;6.636;2023-06-10T04:24:52;13.60;99.90
52941;DHT22;62001;53.366;6.636;2023-06-10T04:27:18;13.70;99.90
52941;DHT22;62001;53.366;6.636;2023-06-10T04:29:44;13.80;99.90
52941;DHT22;62001;53.366;6.636;2023-06-10T04:32:10;13.80;99.90
52941;DHT22;62001;53.366;6.636;2023-06-10T04:34:36;13.90;99.90
52941;DHT22;62001;53.366;6.636;2023-06-10T04:37:04;13.90;99.90
52941;DHT22;62001;53.366;6.636;2023-06-10T04:39:30;14.00;99.90
52941;DHT22;62001;53.366;6.636;2023-06-10T04:41:57;14.10;99.90
52941;DHT22;62001;53.366;6.636;2023-06-10T04:44:22;14.10;99.90
52941;DHT22;62001;53.366;6.636;2023-06-10T04:46:49;14.10;99.90
52941;DHT22;62001;53.366;6.636;2023-06-10T04:49:14;14.20;99.90
52941;DHT22;62001;53.366;6.636;2023-06-10T04:51:40;14.30;99.90
52941;DHT22;62001;53.366;6.636;2023-06-10T04:54:06;14.40;99.90
52941;DHT22;62001;53.366;6.636;2023-06-10T04:56:32;14.50;99.90
52941;DHT22;62001;53.366;6.636;2023-06-10T04:58:59;14.60;99.90
52941;DHT22;62001;53.366;6.636;2023-06-10T05:01:25;15.00;99.90
52941;DHT22;62001;53.366;6.636;2023-06-10T05:03:51;15.80;99.90
52941;DHT22;62001;53.366;6.636;2023-06-10T05:06:17;16.50;99.90
52941;DHT22;62001;53.366;6.636;2023-06-10T05:08:43;16.90;99.90
52941;DHT22;62001;53.366;6.636;2023-06-10T05:11:09;17.40;99.90
52941;DHT22;62001;53.366;6.636;2023-06-10T05:13:35;18.20;99.90
52941;DHT22;62001;53.366;6.636;2023-06-10T05:16:01;19.30;99.90
52941;DHT22;62001;53.366;6.636;2023-06-10T05:18:28;20.20;99.90
52941;DHT22;62001;53.366;6.636;2023-06-10T05:20:54;21.20;99.90
52941;DHT22;62001;53.366;6.636;2023-06-10T05:23:20;21.80;99.90
52941;DHT22;62001;53.366;6.636;2023-06-10T05:25:46;22.70;99.90
52941;DHT22;62001;53.366;6.636;2023-06-10T05:28:12;23.40;99.90
52941;DHT22;62001;53.366;6.636;2023-06-10T05:30:38;23.60;99.90
52941;DHT22;62001;53.366;6.636;2023-06-10T05:33:04;23.80;99.90
52941;DHT22;62001;53.366;6.636;2023-06-10T05:35:30;23.80;99.90
52941;DHT22;62001;53.366;6.636;2023-06-10T05:37:56;24.30;99.90
52941;DHT22;62001;53.366;6.636;2023-06-10T05:40:22;24.70;99.90
52941;DHT22;62001;53.366;6.636;2023-06-10T05:42:49;24.40;99.90
52941;DHT22;62001;53.366;6.636;2023-06-10T05:45:15;24.40;99.90
52941;DHT22;62001;53.366;6.636;2023-06-10T05:47:41;24.70;99.90
52941;DHT22;62001;53.366;6.636;2023-06-10T05:50:07;25.10;99.90
52941;DHT22;62001;53.366;6.636;2023-06-10T05:52:35;25.50;99.90
52941;DHT22;62001;53.366;6.636;2023-06-10T05:55:04;26.10;99.90
52941;DHT22;62001;53.366;6.636;2023-06-10T05:57:30;26.10;99.50
52941;DHT22;62001;53.366;6.636;2023-06-10T05:59:56;25.70;99.90
52941;DHT22;62001;53.366;6.636;2023-06-10T06:02:23;25.20;99.90
52941;DHT22;62001;53.366;6.636;2023-06-10T06:04:49;25.10;99.90
52941;DHT22;62001;53.366;6.636;2023-06-10T06:07:15;24.80;99.90
52941;DHT22;62001;53.366;6.636;2023-06-10T06:09:41;24.10;99.90
52941;DHT22;62001;53.366;6.636;2023-06-10T06:12:07;23.60;99.90
52941;DHT22;62001;53.366;6.636;2023-06-10T06:14:37;23.90;99.90
52941;DHT22;62001;53.366;6.636;2023-06-10T06:17:03;24.30;99.90
52941;DHT22;62001;53.366;6.636;2023-06-10T06:19:29;24.60;99.90
52941;DHT22;62001;53.366;6.636;2023-06-10T06:21:55;25.00;99.90
52941;DHT22;62001;53.366;6.636;2023-06-10T06:24:20;25.20;99.90
52941;DHT22;62001;53.366;6.636;2023-06-10T06:26:46;25.30;99.50
52941;DHT22;62001;53.366;6.636;2023-06-10T06:29:12;25.40;99.30
52941;DHT22;62001;53.366;6.636;2023-06-10T06:31:38;25.80;98.10
52941;DHT22;62001;53.366;6.636;2023-06-10T06:34:04;25.80;96.60
52941;DHT22;62001;53.366;6.636;2023-06-10T06:36:29;25.20;97.10
52941;DHT22;62001;53.366;6.636;2023-06-10T06:38:55;24.90;99.30
52941;DHT22;62001;53.366;6.636;2023-06-10T06:41:21;25.00;99.90
52941;DHT22;62001;53.366;6.636;2023-06-10T06:43:47;25.30;99.20
52941;DHT22;62001;53.366;6.636;2023-06-10T06:46:13;26.10;97.90
52941;DHT22;62001;53.366;6.636;2023-06-10T06:48:41;26.70;96.30
52941;DHT22;62001;53.366;6.636;2023-06-10T06:51:07;26.80;95.20
52941;DHT22;62001;53.366;6.636;2023-06-10T06:53:32;26.60;93.50
52941;DHT22;62001;53.366;6.636;2023-06-10T06:55:58;25.60;94.00
52941;DHT22;62001;53.366;6.636;2023-06-10T06:58:24;24.50;97.80
52941;DHT22;62001;53.366;6.636;2023-06-10T07:00:50;24.00;99.90
52941;DHT22;62001;53.366;6.636;2023-06-10T07:03:16;23.70;99.90
52941;DHT22;62001;53.366;6.636;2023-06-10T07:05:42;23.30;99.90
52941;DHT22;62001;53.366;6.636;2023-06-10T07:08:07;22.80;99.90
52941;DHT22;62001;53.366;6.636;2023-06-10T07:10:33;22.30;99.90
52941;DHT22;62001;53.366;6.636;2023-06-10T07:12:59;22.00;99.90
52941;DHT22;62001;53.366;6.636;2023-06-10T07:15:25;22.10;99.90
52941;DHT22;62001;53.366;6.636;2023-06-10T07:17:51;22.40;99.90
52941;DHT22;62001;53.366;6.636;2023-06-10T07:20:17;22.50;99.90
52941;DHT22;62001;53.366;6.636;2023-06-10T07:22:43;22.40;99.90
52941;DHT22;62001;53.366;6.636;2023-06-10T07:25:09;22.40;99.90
52941;DHT22;62001;53.366;6.636;2023-06-10T07:27:35;22.60;99.90
52941;DHT22;62001;53.366;6.636;2023-06-10T07:30:03;22.60;99.90
52941;DHT22;62001;53.366;6.636;2023-06-10T07:32:30;22.70;99.90
52941;DHT22;62001;53.366;6.636;2023-06-10T07:34:56;22.80;99.90
52941;DHT22;62001;53.366;6.636;2023-06-10T07:37:21;22.60;99.90
52941;DHT22;62001;53.366;6.636;2023-06-10T07:39:47;22.40;99.90
52941;DHT22;62001;53.366;6.636;2023-06-10T07:42:13;22.50;99.90
52941;DHT22;62001;53.366;6.636;2023-06-10T07:44:39;22.60;99.90
52941;DHT22;62001;53.366;6.636;2023-06-10T07:47:05;22.70;99.90
52941;DHT22;62001;53.366;6.636;2023-06-10T07:49:31;22.60;99.90
52941;DHT22;62001;53.366;6.636;2023-06-10T07:51:57;22.60;99.90
52941;DHT22;62001;53.366;6.636;2023-06-10T07:54:23;22.70;99.90
52941;DHT22;62001;53.366;6.636;2023-06-10T07:56:49;22.90;99.90
52941;DHT22;62001;53.366;6.636;2023-06-10T07:59:15;23.10;99.90
52941;DHT22;62001;53.366;6.636;2023-06-10T08:01:41;23.20;99.90
52941;DHT22;62001;53.366;6.636;2023-06-10T08:04:08;23.40;99.90
52941;DHT22;62001;53.366;6.636;2023-06-10T08:06:34;23.60;99.90
52941;DHT22;62001;53.366;6.636;2023-06-10T08:09:00;23.70;99.90
52941;DHT22;62001;53.366;6.636;2023-06-10T08:11:26;23.80;99.90
52941;DHT22;62001;53.366;6.636;2023-06-10T08:13:54;24.00;99.90
52941;DHT22;62001;53.366;6.636;2023-06-10T08:16:20;24.10;99.90
52941;DHT22;62001;53.366;6.636;2023-06-10T08:18:45;24.10;99.90
52941;DHT22;62001;53.366;6.636;2023-06-10T08:21:11;24.10;99.90
52941;DHT22;62001;53.366;6.636;2023-06-10T08:23:37;24.20;99.90
52941;DHT22;62001;53.366;6.636;2023-06-10T08:26:03;24.20;99.90
52941;DHT22;62001;53.366;6.636;2023-06-10T08:28:29;24.20;99.90
52941;DHT22;62001;53.366;6.636;2023-06-10T08:30:55;24.20;99.90
52941;DHT22;62001;53.366;6.636;2023-06-10T08:33:21;24.20;99.90
52941;DHT22;62001;53.366;6.636;2023-06-10T08:35:46;24.20;99.90
52941;DHT22;62001;53.366;6.636;2023-06-10T08:38:12;24.20;99.90
52941;DHT22;62001;53.366;6.636;2023-06-10T08:40:38;24.10;99.90
52941;DHT22;62001;53.366;6.636;2023-06-10T08:43:10;24.10;99.90
52941;DHT22;62001;53.366;6.636;2023-06-10T08:45:42;24.00;99.90
52941;DHT22;62001;53.366;6.636;2023-06-10T08:48:10;23.80;99.90
52941;DHT22;62001;53.366;6.636;2023-06-10T08:50:37;23.70;99.90
52941;DHT22;62001;53.366;6.636;2023-06-10T08:53:05;23.70;99.90
52941;DHT22;62001;53.366;6.636;2023-06-10T08:55:38;23.70;99.90
52941;DHT22;62001;53.366;6.636;2023-06-10T08:58:04;23.70;99.90
52941;DHT22;62001;53.366;6.636;2023-06-10T09:00:31;23.60;99.90
52941;DHT22;62001;53.366;6.636;2023-06-10T09:02:58;23.70;99.90
52941;DHT22;62001;53.366;6.636;2023-06-10T09:05:24;23.70;99.90
52941;DHT22;62001;53.366;6.636;2023-06-10T09:07:52;23.70;99.90
52941;DHT22;62001;53.366;6.636;2023-06-10T09:10:18;23.70;99.90
52941;DHT22;62001;53.366;6.636;2023-06-10T09:12:44;23.50;99.90
52941;DHT22;62001;53.366;6.636;2023-06-10T09:15:10;23.50;99.90
52941;DHT22;62001;53.366;6.636;2023-06-10T09:17:38;23.50;99.90
52941;DHT22;62001;53.366;6.636;2023-06-10T09:20:07;23.60;99.90
52941;DHT22;62001;53.366;6.636;2023-06-10T09:22:34;23.70;99.90
52941;DHT22;62001;53.366;6.636;2023-06-10T09:25:07;23.70;99.90
52941;DHT22;62001;53.366;6.636;2023-06-10T09:27:50;23.70;99.90
52941;DHT22;62001;53.366;6.636;2023-06-10T09:30:32;23.80;99.90
52941;DHT22;62001;53.366;6.636;2023-06-10T09:33:09;23.90;99.90
52941;DHT22;62001;53.366;6.636;2023-06-10T09:35:36;24.00;99.90
52941;DHT22;62001;53.366;6.636;2023-06-10T09:38:02;24.00;99.90
52941;DHT22;62001;53.366;6.636;2023-06-10T09:40:28;23.90;99.90
52941;DHT22;62001;53.366;6.636;2023-06-10T09:42:56;23.90;99.90
52941;DHT22;62001;53.366;6.636;2023-06-10T09:45:23;23.90;99.90
52941;DHT22;62001;53.366;6.636;2023-06-10T09:47:52;23.80;99.90
52941;DHT22;62001;53.366;6.636;2023-06-10T09:50:19;23.90;99.90
52941;DHT22;62001;53.366;6.636;2023-06-10T09:52:46;23.90;99.90
52941;DHT22;62001;53.366;6.636;2023-06-10T09:55:14;23.90;99.90
52941;DHT22;62001;53.366;6.636;2023-06-10T09:57:40;23.80;99.90
52941;DHT22;62001;53.366;6.636;2023-06-10T10:00:11;23.80;99.90
52941;DHT22;62001;53.366;6.636;2023-06-10T10:02:51;23.90;99.90
52941;DHT22;62001;53.366;6.636;2023-06-10T10:05:18;24.10;99.90
52941;DHT22;62001;53.366;6.636;2023-06-10T10:07:45;24.20;99.90
52941;DHT22;62001;53.366;6.636;2023-06-10T10:10:12;24.30;99.90
52941;DHT22;62001;53.366;6.636;2023-06-10T10:12:39;24.30;99.90
52941;DHT22;62001;53.366;6.636;2023-06-10T10:15:10;24.20;99.90
52941;DHT22;62001;53.366;6.636;2023-06-10T10:17:52;24.10;99.90
52941;DHT22;62001;53.366;6.636;2023-06-10T10:20:22;24.00;99.90
52941;DHT22;62001;53.366;6.636;2023-06-10T10:22:51;23.90;99.90
52941;DHT22;62001;53.366;6.636;2023-06-10T10:25:24;23.90;99.90
52941;DHT22;62001;53.366;6.636;2023-06-10T10:27:56;23.80;99.90
52941;DHT22;62001;53.366;6.636;2023-06-10T10:30:24;23.80;99.90
52941;DHT22;62001;53.366;6.636;2023-06-10T10:35:21;23.90;99.90
52941;DHT22;62001;53.366;6.636;2023-06-10T10:37:50;23.90;99.90
52941;DHT22;62001;53.366;6.636;2023-06-10T10:40:17;23.90;99.90
52941;DHT22;62001;53.366;6.636;2023-06-10T10:42:44;23.90;99.90
52941;DHT22;62001;53.366;6.636;2023-06-10T10:45:10;24.00;99.90
52941;DHT22;62001;53.366;6.636;2023-06-10T10:47:36;24.00;99.90
52941;DHT22;62001;53.366;6.636;2023-06-10T10:50:16;24.00;99.90
52941;DHT22;62001;53.366;6.636;2023-06-10T10:52:55;24.00;99.90
52941;DHT22;62001;53.366;6.636;2023-06-10T10:55:25;24.00;99.90
52941;DHT22;62001;53.366;6.636;2023-06-10T10:58:08;23.90;99.90
52941;DHT22;62001;53.366;6.636;2023-06-10T11:00:43;24.00;99.90
52941;DHT22;62001;53.366;6.636;2023-06-10T11:03:14;23.90;99.90
52941;DHT22;62001;53.366;6.636;2023-06-10T11:05:43;24.00;99.90
52941;DHT22;62001;53.366;6.636;2023-06-10T11:08:14;24.10;99.90
52941;DHT22;62001;53.366;6.636;2023-06-10T11:10:41;24.10;99.90
52941;DHT22;62001;53.366;6.636;2023-06-10T11:13:18;24.20;99.90
52941;DHT22;62001;53.366;6.636;2023-06-10T11:15:46;24.20;99.90
52941;DHT22;62001;53.366;6.636;2023-06-10T11:20:56;24.10;99.90
52941;DHT22;62001;53.366;6.636;2023-06-10T11:33:58;24.20;99.90
52941;DHT22;62001;53.366;6.636;2023-06-10T11:36:25;24.20;99.90
52941;DHT22;62001;53.366;6.636;2023-06-10T11:38:56;24.20;99.90
52941;DHT22;62001;53.366;6.636;2023-06-10T11:41:27;24.10;99.90
52941;DHT22;62001;53.366;6.636;2023-06-10T11:43:54;24.10;99.90
52941;DHT22;62001;53.366;6.636;2023-06-10T11:46:23;23.90;99.90
52941;DHT22;62001;53.366;6.636;2023-06-10T11:48:51;23.70;99.90
52941;DHT22;62001;53.366;6.636;2023-06-10T11:51:17;23.60;99.90
52941;DHT22;62001;53.366;6.636;2023-06-10T11:53:49;23.50;99.90
52941;DHT22;62001;53.366;6.636;2023-06-10T11:56:26;23.40;99.90
52941;DHT22;62001;53.366;6.636;2023-06-10T11:59:03;23.40;99.90
52941;DHT22;62001;53.366;6.636;2023-06-10T12:01:35;23.40;99.90
52941;DHT22;62001;53.366;6.636;2023-06-10T12:04:07;23.30;99.90
52941;DHT22;62001;53.366;6.636;2023-06-10T12:06:44;23.30;99.90
52941;DHT22;62001;53.366;6.636;2023-06-10T12:09:25;23.30;99.90
52941;DHT22;62001;53.366;6.636;2023-06-10T12:11:58;23.30;99.90
52941;DHT22;62001;53.366;6.636;2023-06-10T12:17:36;23.30;99.90
52941;DHT22;62001;53.366;6.636;2023-06-10T12:20:07;23.30;99.90
52941;DHT22;62001;53.366;6.636;2023-06-10T12:22:41;23.40;99.90
52941;DHT22;62001;53.366;6.636;2023-06-10T12:25:08;23.50;99.90
52941;DHT22;62001;53.366;6.636;2023-06-10T12:27:36;23.40;99.90
52941;DHT22;62001;53.366;6.636;2023-06-10T12:30:04;23.30;99.90
52941;DHT22;62001;53.366;6.636;2023-06-10T12:32:45;23.20;99.90
52941;DHT22;62001;53.366;6.636;2023-06-10T12:35:12;23.30;99.90
52941;DHT22;62001;53.366;6.636;2023-06-10T12:37:41;23.40;99.90
52941;DHT22;62001;53.366;6.636;2023-06-10T12:40:08;23.50;99.90
52941;DHT22;62001;53.366;6.636;2023-06-10T12:42:38;23.60;99.90
52941;DHT22;62001;53.366;6.636;2023-06-10T12:45:04;23.60;99.90
52941;DHT22;62001;53.366;6.636;2023-06-10T12:47:37;23.40;99.90
52941;DHT22;62001;53.366;6.636;2023-06-10T12:50:07;23.30;99.90
52941;DHT22;62001;53.366;6.636;2023-06-10T12:52:33;23.30;99.90
52941;DHT22;62001;53.366;6.636;2023-06-10T12:54:59;23.40;99.90
52941;DHT22;62001;53.366;6.636;2023-06-10T12:57:26;23.40;99.90
52941;DHT22;62001;53.366;6.636;2023-06-10T12:59:52;23.40;99.90
52941;DHT22;62001;53.366;6.636;2023-06-10T13:02:21;23.30;99.90
52941;DHT22;62001;53.366;6.636;2023-06-10T13:04:49;23.30;99.90
52941;DHT22;62001;53.366;6.636;2023-06-10T13:07:16;23.40;99.90
52941;DHT22;62001;53.366;6.636;2023-06-10T13:09:42;23.40;99.90
52941;DHT22;62001;53.366;6.636;2023-06-10T13:12:08;23.50;99.90
52941;DHT22;62001;53.366;6.636;2023-06-10T13:14:35;23.40;99.90
52941;DHT22;62001;53.366;6.636;2023-06-10T13:17:04;23.50;99.90
52941;DHT22;62001;53.366;6.636;2023-06-10T13:19:34;23.60;99.90
52941;DHT22;62001;53.366;6.636;2023-06-10T13:22:00;23.60;99.90
52941;DHT22;62001;53.366;6.636;2023-06-10T13:24:26;23.70;99.90
52941;DHT22;62001;53.366;6.636;2023-06-10T13:26:53;23.90;99.90
52941;DHT22;62001;53.366;6.636;2023-06-10T13:29:20;23.90;99.90
52941;DHT22;62001;53.366;6.636;2023-06-10T13:31:46;23.90;99.90
52941;DHT22;62001;53.366;6.636;2023-06-10T13:34:12;23.80;99.90
52941;DHT22;62001;53.366;6.636;2023-06-10T13:36:37;23.70;99.90
52941;DHT22;62001;53.366;6.636;2023-06-10T13:39:03;23.70;99.90
52941;DHT22;62001;53.366;6.636;2023-06-10T13:41:29;23.80;99.90
52941;DHT22;62001;53.366;6.636;2023-06-10T13:43:55;23.90;99.90
52941;DHT22;62001;53.366;6.636;2023-06-10T13:46:21;23.90;99.90
52941;DHT22;62001;53.366;6.636;2023-06-10T13:48:47;23.90;99.90
52941;DHT22;62001;53.366;6.636;2023-06-10T13:51:13;24.00;99.90
52941;DHT22;62001;53.366;6.636;2023-06-10T13:53:39;24.00;99.90
52941;DHT22;62001;53.366;6.636;2023-06-10T13:56:05;24.00;99.90
52941;DHT22;62001;53.366;6.636;2023-06-10T13:58:31;23.90;99.90
52941;DHT22;62001;53.366;6.636;2023-06-10T14:00:57;23.90;99.90
52941;DHT22;62001;53.366;6.636;2023-06-10T14:03:24;23.90;99.90
52941;DHT22;62001;53.366;6.636;2023-06-10T14:05:50;24.00;99.90
52941;DHT22;62001;53.366;6.636;2023-06-10T14:08:16;24.10;99.90
52941;DHT22;62001;53.366;6.636;2023-06-10T14:10:43;24.20;99.90
52941;DHT22;62001;53.366;6.636;2023-06-10T14:13:09;24.20;99.90
52941;DHT22;62001;53.366;6.636;2023-06-10T14:15:34;24.30;99.90
52941;DHT22;62001;53.366;6.636;2023-06-10T14:18:01;24.20;99.90
52941;DHT22;62001;53.366;6.636;2023-06-10T14:20:26;24.20;99.90
52941;DHT22;62001;53.366;6.636;2023-06-10T14:22:57;24.00;99.90
52941;DHT22;62001;53.366;6.636;2023-06-10T14:25:24;24.00;99.90
52941;DHT22;62001;53.366;6.636;2023-06-10T14:27:50;24.00;99.90
52941;DHT22;62001;53.366;6.636;2023-06-10T14:30:16;24.10;99.90
52941;DHT22;62001;53.366;6.636;2023-06-10T14:32:42;24.20;99.90
52941;DHT22;62001;53.366;6.636;2023-06-10T14:35:08;24.20;99.90
52941;DHT22;62001;53.366;6.636;2023-06-10T14:37:34;24.20;99.90
52941;DHT22;62001;53.366;6.636;2023-06-10T14:40:00;24.20;99.90
52941;DHT22;62001;53.366;6.636;2023-06-10T14:42:26;24.20;99.90
52941;DHT22;62001;53.366;6.636;2023-06-10T14:44:51;24.20;99.90
52941;DHT22;62001;53.366;6.636;2023-06-10T14:47:17;24.20;99.90
52941;DHT22;62001;53.366;6.636;2023-06-10T14:49:43;24.30;99.90
52941;DHT22;62001;53.366;6.636;2023-06-10T14:52:09;24.20;99.90
52941;DHT22;62001;53.366;6.636;2023-06-10T14:54:35;24.30;99.90
52941;DHT22;62001;53.366;6.636;2023-06-10T14:57:01;24.20;99.90
52941;DHT22;62001;53.366;6.636;2023-06-10T14:59:27;24.20;99.90
52941;DHT22;62001;53.366;6.636;2023-06-10T15:01:53;24.30;99.90
52941;DHT22;62001;53.366;6.636;2023-06-10T15:04:19;24.30;99.90
52941;DHT22;62001;53.366;6.636;2023-06-10T15:06:44;24.40;99.90
52941;DHT22;62001;53.366;6.636;2023-06-10T15:09:10;24.40;99.90
52941;DHT22;62001;53.366;6.636;2023-06-10T15:11:36;24.50;99.90
52941;DHT22;62001;53.366;6.636;2023-06-10T15:14:03;24.60;99.90
52941;DHT22;62001;53.366;6.636;2023-06-10T15:16:29;24.60;99.90
52941;DHT22;62001;53.366;6.636;2023-06-10T15:18:55;24.60;99.90
52941;DHT22;62001;53.366;6.636;2023-06-10T15:21:21;24.60;99.90
52941;DHT22;62001;53.366;6.636;2023-06-10T15:23:46;24.60;99.90
52941;DHT22;62001;53.366;6.636;2023-06-10T15:26:13;24.60;99.90
52941;DHT22;62001;53.366;6.636;2023-06-10T15:28:39;24.70;99.90
52941;DHT22;62001;53.366;6.636;2023-06-10T15:31:05;24.70;99.90
52941;DHT22;62001;53.366;6.636;2023-06-10T15:33:31;24.60;99.90
52941;DHT22;62001;53.366;6.636;2023-06-10T15:35:56;24.50;99.90
52941;DHT22;62001;53.366;6.636;2023-06-10T15:38:22;24.40;99.90
52941;DHT22;62001;53.366;6.636;2023-06-10T15:40:48;24.40;99.90
52941;DHT22;62001;53.366;6.636;2023-06-10T15:43:14;24.40;99.90
52941;DHT22;62001;53.366;6.636;2023-06-10T15:45:40;24.40;99.90
52941;DHT22;62001;53.366;6.636;2023-06-10T15:48:06;24.40;99.90
52941;DHT22;62001;53.366;6.636;2023-06-10T15:50:31;24.40;99.90
52941;DHT22;62001;53.366;6.636;2023-06-10T15:52:57;24.30;99.90
52941;DHT22;62001;53.366;6.636;2023-06-10T15:55:23;24.30;99.90